Time;durP1;ratioP1;P1;durP2;ratioP2;P2;SDS_P1;SDS_P2;PMS_P1;PMS_P2;Temp;Humidity;BMP_temperature;BMP_pressure;BME280_temperature;BME280_humidity;BME280_pressure;Samples;Min_cycle;Max_cycle;Signal;HPM_P1;HPM_P2
2023/12/09 00:00:31;;;;;;;43.03;21.52;;;1.60;99.90;;;;;;4974034;28;20104;-64
2023/12/09 00:02:58;;;;;;;43.00;21.73;;;1.60;99.90;;;;;;4984288;28;20428;-63
2023/12/09 00:05:25;;;;;;;44.92;22.30;;;1.70;99.90;;;;;;4991407;28;20065;-64
2023/12/09 00:07:51;;;;;;;44.22;22.23;;;1.70;99.90;;;;;;4991381;28;20061;-64
2023/12/09 00:10:18;;;;;;;47.40;22.95;;;1.70;99.90;;;;;;4971020;28;20442;-62
2023/12/09 00:12:48;;;;;;;43.55;22.38;;;1.70;99.90;;;;;;4989155;28;20046;-60
2023/12/09 00:15:14;;;;;;;40.88;22.33;;;1.70;99.90;;;;;;4991828;28;20070;-61
2023/12/09 00:17:41;;;;;;;29.10;15.90;;;1.70;99.90;;;;;;4991610;28;20050;-61
2023/12/09 00:20:09;;;;;;;35.67;19.52;;;1.70;99.90;;;;;;4988720;28;20125;-61
2023/12/09 00:22:35;;;;;;;42.72;23.60;;;1.70;99.90;;;;;;4984746;28;20388;-61
2023/12/09 00:25:03;;;;;;;40.67;21.20;;;1.70;99.90;;;;;;4991663;28;20038;-59
2023/12/09 00:27:30;;;;;;;38.80;22.10;;;1.60;99.90;;;;;;4990157;28;20514;-58
2023/12/09 00:29:57;;;;;;;43.15;21.20;;;1.60;99.90;;;;;;4984640;28;20041;-61
2023/12/09 00:32:24;;;;;;;36.50;19.67;;;1.60;99.90;;;;;;4990261;28;20126;-61
2023/12/09 00:34:51;;;;;;;40.78;21.67;;;1.60;99.90;;;;;;4992061;28;20035;-60
2023/12/09 00:37:18;;;;;;;40.72;21.48;;;1.60;99.90;;;;;;4988064;28;20121;-58
2023/12/09 00:39:45;;;;;;;43.13;23.30;;;1.60;99.90;;;;;;4991841;28;20054;-59
2023/12/09 00:42:11;;;;;;;30.08;16.10;;;1.60;99.90;;;;;;4989243;28;20053;-61
2023/12/09 00:44:38;;;;;;;46.17;23.98;;;1.70;99.90;;;;;;4991423;28;20407;-60
2023/12/09 00:47:05;;;;;;;44.50;23.52;;;1.60;99.90;;;;;;4995505;28;20042;-60
2023/12/09 00:49:32;;;;;;;42.92;23.80;;;1.60;99.90;;;;;;4992654;28;20399;-60
2023/12/09 00:51:59;;;;;;;42.30;23.50;;;1.50;99.90;;;;;;4985298;28;20043;-61
2023/12/09 00:54:26;;;;;;;41.90;23.35;;;1.50;99.90;;;;;;4994721;28;20394;-59
2023/12/09 00:56:53;;;;;;;46.33;24.42;;;1.60;99.90;;;;;;4995600;28;20039;-58
2023/12/09 00:59:20;;;;;;;51.63;26.17;;;1.50;99.90;;;;;;4993198;28;20129;-59
2023/12/09 01:01:46;;;;;;;45.78;25.85;;;1.60;99.90;;;;;;4992834;28;20053;-59
2023/12/09 01:04:14;;;;;;;;;;;1.60;99.90;;;;;;4983254;28;20050;-60
2023/12/09 01:06:41;;;;;;;66.65;31.30;;;1.50;99.90;;;;;;4993543;28;20370;-60
2023/12/09 01:09:07;;;;;;;54.58;25.52;;;1.50;99.90;;;;;;4985057;28;20411;-61
2023/12/09 01:11:34;;;;;;;64.47;32.40;;;1.50;99.90;;;;;;4979810;28;20068;-60
2023/12/09 01:14:01;;;;;;;60.72;28.05;;;1.50;99.90;;;;;;4983729;28;20046;-60
2023/12/09 01:16:28;;;;;;;48.92;26.67;;;1.60;99.90;;;;;;4991960;28;20137;-60
2023/12/09 01:18:54;;;;;;;34.28;17.70;;;1.60;99.90;;;;;;4995374;28;20031;-60
2023/12/09 01:21:22;;;;;;;43.63;23.55;;;1.60;99.90;;;;;;4995328;28;20109;-59
2023/12/09 01:23:48;;;;;;;46.13;24.15;;;1.60;99.90;;;;;;4992139;28;20039;-57
2023/12/09 01:26:15;;;;;;;52.92;28.35;;;1.60;99.90;;;;;;4984477;28;20503;-61
2023/12/09 01:28:42;;;;;;;55.83;29.52;;;1.60;99.90;;;;;;4990388;28;20058;-60
2023/12/09 01:31:09;;;;;;;56.15;28.95;;;1.50;99.90;;;;;;4979612;28;20043;-57
2023/12/09 01:33:37;;;;;;;45.70;24.85;;;1.50;99.90;;;;;;4993026;28;20366;-60
2023/12/09 01:36:04;;;;;;;49.60;25.52;;;1.50;99.90;;;;;;4991346;28;20574;-60
2023/12/09 01:38:31;;;;;;;46.38;24.15;;;1.50;99.90;;;;;;4994300;28;20570;-61
2023/12/09 01:40:58;;;;;;;50.08;25.48;;;1.50;99.90;;;;;;4990915;28;20554;-60
2023/12/09 01:43:25;;;;;;;31.95;17.58;;;1.50;99.90;;;;;;4987316;28;20057;-60
2023/12/09 01:45:54;;;;;;;44.42;22.48;;;1.50;99.90;;;;;;4994436;28;20436;-57
2023/12/09 01:48:22;;;;;;;40.63;23.20;;;1.50;99.90;;;;;;4994849;28;20092;-59
2023/12/09 01:50:50;;;;;;;45.38;23.98;;;1.50;99.90;;;;;;4994440;28;20042;-58
2023/12/09 01:53:17;;;;;;;45.53;25.45;;;1.50;99.90;;;;;;4988252;28;20414;-59
2023/12/09 01:55:43;;;;;;;44.10;23.17;;;1.50;99.90;;;;;;4977226;28;20065;-60
2023/12/09 01:58:11;;;;;;;48.47;24.45;;;1.50;99.90;;;;;;4993697;28;20042;-60
2023/12/09 02:00:38;;;;;;;;;;;1.50;99.90;;;;;;4977419;28;20398;-59
2023/12/09 02:03:05;;;;;;;47.78;24.00;;;1.50;99.90;;;;;;4991007;28;19921;-59
2023/12/09 02:05:32;;;;;;;47.00;24.10;;;1.50;99.90;;;;;;4994293;28;20041;-60
2023/12/09 02:07:59;;;;;;;44.55;24.73;;;1.60;99.90;;;;;;4994352;28;20043;-59
2023/12/09 02:10:27;;;;;;;45.83;23.88;;;1.60;99.90;;;;;;4989234;28;20054;-61
2023/12/09 02:13:12;;;;;;;46.88;23.77;;;1.60;99.90;;;;;;4994606;28;20038;-57
2023/12/09 02:15:46;;;;;;;48.58;25.75;;;1.60;99.90;;;;;;4984305;28;20071;-60
2023/12/09 02:18:15;;;;;;;46.72;24.15;;;1.50;99.90;;;;;;4991047;28;20053;-60
2023/12/09 02:20:42;;;;;;;47.45;23.40;;;1.50;99.90;;;;;;4985811;28;20534;-60
2023/12/09 02:23:11;;;;;;;49.40;25.25;;;1.60;99.90;;;;;;4994149;28;20045;-58
2023/12/09 02:25:39;;;;;;;45.80;23.23;;;1.60;99.90;;;;;;4989547;28;20130;-59
2023/12/09 02:28:12;;;;;;;47.28;23.98;;;1.60;99.90;;;;;;4994007;28;20049;-58
2023/12/09 02:30:44;;;;;;;42.95;23.73;;;1.60;99.90;;;;;;4994005;28;20117;-59
2023/12/09 02:33:14;;;;;;;51.33;25.15;;;1.60;99.90;;;;;;4985412;28;20061;-60
2023/12/09 02:35:43;;;;;;;43.53;23.30;;;1.50;99.90;;;;;;4982057;28;20046;-57
2023/12/09 02:38:11;;;;;;;47.22;22.92;;;1.50;99.90;;;;;;4988006;28;20042;-58
2023/12/09 02:40:40;;;;;;;49.10;25.10;;;1.50;99.90;;;;;;4985775;28;20055;-60
2023/12/09 02:43:07;;;;;;;52.83;25.20;;;1.50;99.90;;;;;;4986137;28;20534;-59
2023/12/09 02:45:34;;;;;;;45.53;22.83;;;1.50;99.90;;;;;;4977744;28;20045;-58
2023/12/09 02:48:03;;;;;;;43.22;23.92;;;1.50;99.90;;;;;;4989831;28;20053;-59
2023/12/09 02:50:31;;;;;;;45.97;24.10;;;1.60;99.90;;;;;;4993274;28;20039;-60
2023/12/09 02:52:57;;;;;;;;;;;1.60;99.90;;;;;;4977515;28;20041;-60
2023/12/09 02:55:24;;;;;;;39.88;20.98;;;1.70;99.90;;;;;;4981567;28;20286;-57
2023/12/09 02:57:51;;;;;;;29.25;17.25;;;1.70;99.90;;;;;;4982924;28;20403;-58
2023/12/09 03:00:18;;;;;;;36.65;18.33;;;1.60;99.90;;;;;;4987076;28;20058;-59
2023/12/09 03:02:45;;;;;;;50.45;24.05;;;1.70;99.90;;;;;;4991881;28;20121;-60
2023/12/09 03:05:11;;;;;;;46.75;23.73;;;1.70;99.90;;;;;;4990230;28;20078;-59
2023/12/09 03:07:38;;;;;;;46.55;24.15;;;1.70;99.90;;;;;;4985168;28;20050;-60
2023/12/09 03:10:05;;;;;;;43.17;23.38;;;1.80;99.90;;;;;;4993301;28;20042;-59
2023/12/09 03:12:32;;;;;;;51.85;24.23;;;1.70;99.90;;;;;;4988862;28;20121;-59
2023/12/09 03:14:59;;;;;;;42.28;22.58;;;1.70;99.90;;;;;;4992525;28;20380;-60
2023/12/09 03:17:26;;;;;;;41.65;22.50;;;1.70;99.90;;;;;;4985496;28;20049;-59
2023/12/09 03:19:53;;;;;;;41.97;22.77;;;1.70;99.90;;;;;;4980356;28;20104;-60
2023/12/09 03:22:19;;;;;;;41.40;21.83;;;1.70;99.90;;;;;;4985330;28;20057;-59
2023/12/09 03:24:47;;;;;;;46.40;23.30;;;1.80;99.90;;;;;;4985336;28;20078;-59
2023/12/09 03:27:14;;;;;;;40.70;22.10;;;1.70;99.90;;;;;;4987477;28;20537;-60
2023/12/09 03:29:41;;;;;;;40.75;22.42;;;1.70;99.90;;;;;;4984997;28;20047;-61
2023/12/09 03:32:08;;;;;;;45.05;22.98;;;1.80;99.90;;;;;;4986448;28;20058;-59
2023/12/09 03:34:35;;;;;;;32.60;16.95;;;1.80;99.90;;;;;;4988066;28;20045;-59
2023/12/09 03:37:02;;;;;;;46.30;23.90;;;1.80;99.90;;;;;;4987941;28;20039;-57
2023/12/09 03:39:28;;;;;;;46.50;24.30;;;1.80;99.90;;;;;;4980623;28;20050;-59
2023/12/09 03:41:55;;;;;;;45.88;24.88;;;1.80;99.90;;;;;;4984127;28;20045;-60
2023/12/09 03:44:22;;;;;;;51.25;26.92;;;1.80;99.90;;;;;;4984983;28;20121;-60
2023/12/09 03:46:49;;;;;;;48.85;26.25;;;1.80;99.90;;;;;;4982092;28;20042;-58
2023/12/09 03:49:15;;;;;;;52.38;27.08;;;1.70;99.90;;;;;;4981696;28;20049;-59
2023/12/09 03:51:42;;;;;;;54.65;28.85;;;1.70;99.90;;;;;;4990089;28;20048;-60
2023/12/09 03:54:09;;;;;;;54.20;28.70;;;1.70;99.90;;;;;;4984706;28;20073;-60
2023/12/09 03:56:36;;;;;;;52.55;27.83;;;1.70;99.90;;;;;;4976027;28;20047;-60
2023/12/09 03:59:03;;;;;;;55.70;27.77;;;1.70;99.90;;;;;;4980833;28;20057;-58
2023/12/09 04:01:30;;;;;;;56.53;27.83;;;1.70;99.90;;;;;;4981007;28;20507;-59
2023/12/09 04:03:57;;;;;;;55.63;29.45;;;1.70;99.90;;;;;;4992172;28;20050;-60
2023/12/09 04:06:24;;;;;;;52.22;28.65;;;1.70;99.90;;;;;;4991351;28;20057;-60
2023/12/09 04:08:50;;;;;;;52.03;27.75;;;1.70;99.90;;;;;;4982249;28;20042;-61
2023/12/09 04:11:18;;;;;;;57.15;29.98;;;1.80;99.90;;;;;;4986428;28;20052;-58
2023/12/09 04:13:45;;;;;;;51.38;27.58;;;1.70;99.90;;;;;;4992069;28;20038;-60
2023/12/09 04:20:12;;;;;;;58.30;26.70;;;1.70;99.90;;;;;;4977229;28;20100;-60
2023/12/09 04:22:39;;;;;;;54.13;28.20;;;1.70;99.90;;;;;;4992128;28;20522;-59
2023/12/09 04:25:06;;;;;;;55.40;27.83;;;1.80;99.90;;;;;;4986956;28;20045;-60
2023/12/09 04:27:33;;;;;;;54.28;26.20;;;1.80;99.90;;;;;;4991915;28;20402;-60
2023/12/09 04:30:01;;;;;;;;;;;1.80;99.90;;;;;;4984561;28;20038;-59
2023/12/09 04:32:29;;;;;;;56.88;28.15;;;1.80;99.90;;;;;;4985383;28;19922;-59
2023/12/09 04:34:57;;;;;;;52.97;27.05;;;1.80;99.90;;;;;;4983192;28;20046;-60
2023/12/09 04:37:24;;;;;;;54.70;27.02;;;1.70;99.90;;;;;;4978940;28;20046;-60
2023/12/09 04:39:51;;;;;;;;;;;1.70;99.90;;;;;;4981102;28;20049;-59
2023/12/09 04:42:19;;;;;;;59.97;26.58;;;1.80;99.90;;;;;;4986443;28;19922;-59
2023/12/09 04:44:46;;;;;;;56.45;26.83;;;1.70;99.90;;;;;;4983620;28;20392;-60
2023/12/09 04:47:13;;;;;;;57.13;28.10;;;1.70;99.90;;;;;;4982317;28;20050;-59
2023/12/09 04:49:39;;;;;;;53.42;27.05;;;1.80;99.90;;;;;;4991674;28;20047;-60
2023/12/09 04:52:06;;;;;;;55.13;28.65;;;1.80;99.90;;;;;;4991417;28;20038;-60
2023/12/09 04:54:33;;;;;;;57.47;27.05;;;1.70;99.90;;;;;;4988248;28;20039;-58
2023/12/09 04:57:00;;;;;;;59.53;29.98;;;1.80;99.90;;;;;;4990791;28;20045;-59
2023/12/09 04:59:26;;;;;;;56.97;28.95;;;1.80;99.90;;;;;;4970010;28;20518;-60
2023/12/09 05:01:53;;;;;;;62.55;30.20;;;1.80;99.90;;;;;;4991224;28;20046;-61
2023/12/09 05:04:20;;;;;;;60.20;30.02;;;1.80;99.90;;;;;;4983749;28;20146;-58
2023/12/09 05:06:47;;;;;;;61.50;31.20;;;1.80;99.90;;;;;;4986976;28;20044;-59
2023/12/09 05:09:14;;;;;;;59.03;29.40;;;1.80;99.90;;;;;;4989445;28;20100;-59
2023/12/09 05:11:41;;;;;;;62.00;29.77;;;1.80;99.90;;;;;;4988527;28;20050;-59
2023/12/09 05:14:07;;;;;;;60.92;29.38;;;1.80;99.90;;;;;;4991465;28;20052;-58
2023/12/09 05:16:34;;;;;;;63.70;29.15;;;1.80;99.90;;;;;;4991341;28;20051;-60
2023/12/09 05:19:01;;;;;;;49.90;23.60;;;1.80;99.90;;;;;;4984619;28;20053;-59
2023/12/09 05:21:28;;;;;;;49.47;25.55;;;1.80;99.90;;;;;;4987220;28;20494;-59
2023/12/09 05:24:03;;;;;;;50.95;26.00;;;1.80;99.90;;;;;;4983097;28;20931;-59
2023/12/09 05:26:31;;;;;;;56.13;26.10;;;1.80;99.90;;;;;;4986829;28;20045;-60
2023/12/09 05:28:58;;;;;;;56.63;27.83;;;1.80;99.90;;;;;;4988870;28;20042;-57
2023/12/09 05:31:24;;;;;;;58.28;28.55;;;1.80;99.90;;;;;;4987435;28;20136;-60
2023/12/09 05:33:51;;;;;;;46.00;21.75;;;1.80;99.90;;;;;;4976829;28;20064;-60
2023/12/09 05:36:18;;;;;;;57.00;28.90;;;1.80;99.90;;;;;;4995037;28;20607;-60
2023/12/09 05:38:45;;;;;;;55.97;28.67;;;1.80;99.90;;;;;;4982703;28;20079;-60
2023/12/09 05:41:12;;;;;;;60.13;29.55;;;1.90;99.90;;;;;;4987510;28;20403;-60
2023/12/09 05:43:39;;;;;;;65.60;30.40;;;1.90;99.90;;;;;;4979496;28;20038;-60
2023/12/09 05:46:06;;;;;;;66.75;30.67;;;1.90;99.90;;;;;;4986938;28;20049;-60
2023/12/09 05:48:33;;;;;;;62.03;31.13;;;1.90;99.90;;;;;;4980952;28;20055;-59
2023/12/09 05:51:00;;;;;;;;;;;1.90;99.90;;;;;;4994774;28;20100;-60
2023/12/09 05:53:27;;;;;;;55.20;27.48;;;1.90;99.90;;;;;;4994188;28;19922;-60
2023/12/09 05:55:54;;;;;;;66.32;30.35;;;1.90;99.90;;;;;;4992959;28;20043;-60
2023/12/09 05:58:21;;;;;;;63.25;29.90;;;1.90;99.90;;;;;;4981961;28;20034;-60
2023/12/09 06:00:48;;;;;;;39.75;20.13;;;1.90;99.90;;;;;;4993130;28;20046;-60
2023/12/09 06:03:15;;;;;;;;;;;1.90;99.90;;;;;;4986472;28;20124;-59
2023/12/09 06:05:42;;;;;;;65.35;31.10;;;2.00;99.90;;;;;;4985644;28;19922;-60
2023/12/09 06:08:09;;;;;;;76.07;32.95;;;2.00;99.90;;;;;;4978131;28;20046;-60
2023/12/09 06:10:35;;;;;;;75.53;32.83;;;2.00;99.90;;;;;;4990658;28;20042;-59
2023/12/09 06:13:02;;;;;;;77.32;33.88;;;2.00;99.90;;;;;;4986421;28;20050;-59
2023/12/09 06:15:29;;;;;;;44.50;22.73;;;2.00;99.90;;;;;;4986571;28;20046;-60
2023/12/09 06:17:56;;;;;;;58.38;25.85;;;2.00;99.90;;;;;;4970618;28;20125;-60
2023/12/09 06:20:23;;;;;;;49.30;24.55;;;2.00;99.90;;;;;;4988967;28;20082;-58
2023/12/09 06:22:50;;;;;;;55.70;26.40;;;2.00;99.90;;;;;;4992033;28;20066;-59
2023/12/09 06:25:17;;;;;;;65.10;28.67;;;2.10;99.90;;;;;;4981344;28;20050;-60
2023/12/09 06:27:43;;;;;;;64.88;28.67;;;2.10;99.90;;;;;;4993762;28;20053;-59
2023/12/09 06:30:11;;;;;;;61.63;28.23;;;2.10;99.90;;;;;;4985824;28;20038;-60
2023/12/09 06:32:38;;;;;;;58.03;26.67;;;2.00;99.90;;;;;;4994527;28;20105;-59
2023/12/09 06:35:05;;;;;;;52.03;25.38;;;2.00;99.90;;;;;;4983012;28;20119;-60
2023/12/09 06:37:32;;;;;;;59.75;27.63;;;2.00;99.90;;;;;;4983104;28;20035;-61
2023/12/09 06:39:59;;;;;;;53.70;24.98;;;2.00;99.90;;;;;;4992085;28;20049;-60
2023/12/09 06:42:26;;;;;;;49.35;24.52;;;1.90;99.90;;;;;;4965045;28;20051;-58
2023/12/09 06:44:53;;;;;;;51.95;26.05;;;1.90;99.90;;;;;;4982691;28;20061;-61
2023/12/09 06:47:20;;;;;;;52.03;26.15;;;1.90;99.90;;;;;;4987562;28;20054;-60
2023/12/09 06:49:46;;;;;;;55.38;25.52;;;1.90;99.90;;;;;;4984720;28;20136;-60
2023/12/09 06:52:13;;;;;;;52.33;26.13;;;1.90;99.90;;;;;;4985937;28;20487;-59
2023/12/09 06:54:40;;;;;;;48.47;24.55;;;1.80;99.90;;;;;;4983228;28;20403;-59
2023/12/09 06:57:07;;;;;;;53.38;26.13;;;1.80;99.90;;;;;;4992737;28;20039;-59
2023/12/09 06:59:34;;;;;;;55.45;26.67;;;1.80;99.90;;;;;;4993123;28;20051;-61
2023/12/09 07:02:00;;;;;;;55.70;26.25;;;1.90;99.90;;;;;;4991906;28;20068;-61
2023/12/09 07:04:27;;;;;;;59.92;28.88;;;1.90;99.90;;;;;;4980740;28;20074;-59
2023/12/09 07:07:00;;;;;;;63.60;28.85;;;1.90;99.90;;;;;;4989925;28;20640;-59
2023/12/09 07:09:28;;;;;;;59.30;27.90;;;1.90;99.90;;;;;;4993273;28;20130;-59
2023/12/09 07:11:55;;;;;;;58.25;27.95;;;1.90;99.90;;;;;;4989697;28;20054;-60
2023/12/09 07:14:28;;;;;;;52.78;25.58;;;1.90;99.90;;;;;;4988671;28;20163;-60
2023/12/09 07:16:55;;;;;;;52.10;26.48;;;2.00;99.90;;;;;;4990785;28;20050;-60
2023/12/09 07:19:22;;;;;;;61.45;28.65;;;2.00;99.90;;;;;;4992700;28;20042;-60
2023/12/09 07:21:50;;;;;;;54.60;26.75;;;2.00;99.90;;;;;;4992399;28;20053;-60
2023/12/09 07:24:17;;;;;;;62.13;30.80;;;2.10;99.90;;;;;;4984652;28;20053;-60
2023/12/09 07:26:44;;;;;;;58.67;30.23;;;2.10;99.90;;;;;;4988675;28;20491;-60
2023/12/09 07:29:11;;;;;;;49.00;24.08;;;2.10;99.90;;;;;;4992818;28;20479;-59
2023/12/09 07:31:38;;;;;;;75.95;33.78;;;2.10;99.90;;;;;;4987541;28;20045;-60
2023/12/09 07:34:05;;;;;;;73.22;35.28;;;2.10;99.90;;;;;;4992856;28;20391;-60
2023/12/09 07:36:32;;;;;;;83.70;31.40;;;2.10;99.90;;;;;;4992100;28;20042;-59
2023/12/09 07:38:59;;;;;;;69.63;26.95;;;2.10;99.90;;;;;;4988037;28;20070;-59
2023/12/09 07:41:25;;;;;;;78.00;28.55;;;2.10;99.90;;;;;;4993112;28;20046;-61
2023/12/09 07:43:52;;;;;;;56.78;24.95;;;2.10;99.90;;;;;;4992898;28;20046;-61
2023/12/09 07:46:19;;;;;;;50.75;24.83;;;2.10;99.90;;;;;;4981395;28;20487;-59
2023/12/09 07:48:46;;;;;;;48.08;25.10;;;2.10;99.90;;;;;;4992553;28;20487;-59
2023/12/09 07:51:13;;;;;;;53.53;25.90;;;2.00;99.90;;;;;;4983649;28;20042;-59
2023/12/09 07:53:39;;;;;;;57.42;28.35;;;2.10;99.90;;;;;;4985610;28;20538;-59
2023/12/09 07:56:07;;;;;;;39.40;19.10;;;2.10;99.90;;;;;;4990473;28;20042;-60
2023/12/09 07:58:33;;;;;;;63.03;29.75;;;2.10;99.90;;;;;;4992482;28;20030;-60
2023/12/09 08:01:01;;;;;;;44.05;22.20;;;2.20;99.90;;;;;;4992255;28;20060;-60
2023/12/09 08:03:32;;;;;;;63.47;30.08;;;2.20;99.90;;;;;;4991690;28;20112;-61
2023/12/09 08:05:59;;;;;;;69.70;32.80;;;2.30;99.90;;;;;;4991825;28;20125;-60
2023/12/09 08:08:27;;;;;;;89.28;32.08;;;2.40;99.90;;;;;;4986100;28;20125;-58
2023/12/09 08:10:54;;;;;;;69.97;31.67;;;2.40;99.90;;;;;;4992118;28;20121;-60
2023/12/09 08:13:20;;;;;;;63.42;29.05;;;2.40;99.90;;;;;;4992448;28;20041;-60
2023/12/09 08:15:47;;;;;;;60.63;30.30;;;2.40;99.90;;;;;;4985580;28;20035;-59
2023/12/09 08:18:14;;;;;;;63.72;28.73;;;2.40;99.90;;;;;;4991995;28;20077;-59
2023/12/09 08:20:41;;;;;;;67.50;30.52;;;2.40;99.90;;;;;;4986355;28;20133;-60
2023/12/09 08:23:08;;;;;;;65.57;29.75;;;2.40;99.90;;;;;;4973862;28;20050;-59
2023/12/09 08:25:34;;;;;;;64.30;30.38;;;2.40;99.90;;;;;;4991586;28;20057;-60
2023/12/09 08:28:01;;;;;;;45.55;22.90;;;2.50;99.90;;;;;;4986548;28;20475;-60
2023/12/09 08:30:28;;;;;;;62.05;27.73;;;2.70;99.90;;;;;;4986057;28;20065;-60
2023/12/09 08:32:55;;;;;;;59.97;29.40;;;2.70;99.90;;;;;;4984724;28;20042;-60
2023/12/09 08:35:22;;;;;;;70.47;35.03;;;2.70;99.90;;;;;;4984108;28;20042;-60
2023/12/09 08:37:50;;;;;;;70.78;33.35;;;2.70;99.90;;;;;;4991210;28;20050;-60
2023/12/09 08:40:17;;;;;;;66.15;30.38;;;2.70;99.90;;;;;;4981515;28;20039;-60
2023/12/09 08:42:45;;;;;;;;;;;2.90;99.90;;;;;;4988333;28;20034;-61
2023/12/09 08:45:15;;;;;;;58.88;29.80;;;2.90;99.90;;;;;;4991314;28;20303;-58
2023/12/09 08:47:42;;;;;;;70.05;30.35;;;3.00;99.90;;;;;;4991358;28;20101;-61
2023/12/09 08:50:12;;;;;;;63.33;29.38;;;3.10;99.90;;;;;;4990188;28;20085;-61
2023/12/09 08:52:53;;;;;;;64.18;29.48;;;3.10;99.90;;;;;;4991836;28;20125;-59
2023/12/09 08:55:21;;;;;;;69.25;30.92;;;3.10;99.90;;;;;;4973647;28;20030;-60
2023/12/09 08:57:48;;;;;;;79.50;32.33;;;3.00;99.90;;;;;;4973740;28;20043;-58
2023/12/09 09:00:20;;;;;;;76.32;33.53;;;2.90;99.90;;;;;;4987867;28;20038;-61
2023/12/09 09:02:47;;;;;;;74.65;33.08;;;2.90;99.90;;;;;;4983964;28;20050;-61
2023/12/09 09:05:14;;;;;;;64.68;31.63;;;3.00;99.90;;;;;;4988652;28;20043;-60
2023/12/09 09:07:44;;;;;;;69.90;33.33;;;3.00;99.90;;;;;;4991509;28;20388;-60
2023/12/09 09:10:11;;;;;;;64.80;30.40;;;3.10;99.90;;;;;;4987973;28;20141;-61
2023/12/09 09:12:37;;;;;;;80.95;32.83;;;3.20;99.90;;;;;;4995480;28;20126;-60
2023/12/09 09:15:05;;;;;;;64.65;29.55;;;3.20;99.90;;;;;;4993809;28;20038;-60
2023/12/09 09:17:39;;;;;;;70.43;30.42;;;3.30;99.90;;;;;;4994221;28;20141;-60
2023/12/09 09:20:06;;;;;;;66.70;28.13;;;3.30;99.90;;;;;;4988376;28;20050;-60
2023/12/09 09:22:33;;;;;;;;;;;3.30;99.90;;;;;;4996088;28;20034;-60
2023/12/09 09:25:01;;;;;;;73.63;31.75;;;3.30;99.90;;;;;;4988762;28;19926;-59
2023/12/09 09:27:28;;;;;;;;;;;3.50;99.90;;;;;;4991502;28;20038;-60
2023/12/09 09:29:55;;;;;;;63.72;30.48;;;3.60;99.90;;;;;;4994200;28;19926;-60
2023/12/09 09:32:22;;;;;;;;;;;3.50;99.90;;;;;;4992003;28;20364;-61
2023/12/09 09:34:49;;;;;;;63.78;28.40;;;3.40;99.90;;;;;;4991415;28;19921;-61
2023/12/09 09:37:16;;;;;;;67.32;32.05;;;3.30;99.90;;;;;;4986484;28;20117;-59
2023/12/09 09:39:43;;;;;;;80.85;34.47;;;3.30;99.90;;;;;;4986459;28;20129;-59
2023/12/09 09:42:19;;;;;;;76.97;33.33;;;3.30;99.90;;;;;;4986516;28;20133;-61
2023/12/09 09:44:55;;;;;;;80.93;32.10;;;3.30;99.90;;;;;;4995372;28;20049;-60
2023/12/09 09:47:23;;;;;;;73.13;29.80;;;3.50;99.90;;;;;;4979086;28;20050;-60
2023/12/09 09:49:51;;;;;;;67.00;29.50;;;3.50;99.90;;;;;;4989881;28;20085;-61
2023/12/09 09:52:22;;;;;;;62.10;28.45;;;3.60;99.90;;;;;;4994522;28;20042;-60
2023/12/09 09:54:50;;;;;;;63.78;29.45;;;3.70;99.90;;;;;;4988006;28;20142;-59
2023/12/09 09:57:19;;;;;;;68.57;31.08;;;3.70;99.90;;;;;;4993625;28;20052;-58
2023/12/09 09:59:47;;;;;;;59.70;28.08;;;3.90;99.90;;;;;;4994287;28;20495;-61
2023/12/09 10:02:19;;;;;;;57.80;29.17;;;4.00;99.90;;;;;;4994312;28;20046;-61
2023/12/09 10:04:46;;;;;;;52.83;25.55;;;4.00;99.90;;;;;;4991822;28;20117;-60
2023/12/09 10:07:14;;;;;;;55.00;26.10;;;4.10;99.90;;;;;;4991359;28;20045;-60
2023/12/09 10:09:41;;;;;;;56.97;27.10;;;4.20;99.90;;;;;;4991523;28;20043;-61
2023/12/09 10:12:08;;;;;;;59.47;27.85;;;4.30;99.90;;;;;;4991356;28;20125;-61
2023/12/09 10:14:35;;;;;;;53.65;25.35;;;4.40;99.90;;;;;;4991771;28;20046;-59
2023/12/09 10:17:03;;;;;;;56.88;25.30;;;4.40;99.90;;;;;;4991188;28;20050;-60
2023/12/09 10:19:30;;;;;;;53.92;24.73;;;4.40;99.90;;;;;;4986855;28;20035;-61
2023/12/09 10:21:57;;;;;;;53.92;25.67;;;4.40;99.90;;;;;;4991168;28;20046;-61
2023/12/09 10:24:24;;;;;;;54.72;25.27;;;4.50;99.90;;;;;;4992112;28;20042;-61
2023/12/09 10:26:51;;;;;;;54.95;24.90;;;4.50;99.90;;;;;;4986316;28;20055;-59
2023/12/09 10:29:17;;;;;;;51.65;25.27;;;4.40;99.90;;;;;;4986134;28;20061;-60
2023/12/09 10:31:45;;;;;;;50.17;25.88;;;4.30;99.90;;;;;;4993271;28;20038;-61
2023/12/09 10:34:12;;;;;;;48.05;24.23;;;4.30;99.90;;;;;;4993125;28;20049;-61
2023/12/09 10:36:40;;;;;;;47.45;23.77;;;4.30;99.90;;;;;;4991332;28;20038;-60
2023/12/09 10:39:08;;;;;;;;;;;4.40;99.90;;;;;;4994036;28;20073;-60
2023/12/09 10:41:35;;;;;;;50.22;24.20;;;4.30;99.90;;;;;;4993573;28;19921;-61
2023/12/09 10:44:02;;;;;;;51.70;23.35;;;4.40;99.90;;;;;;4993980;28;20454;-61
2023/12/09 10:46:29;;;;;;;46.15;22.85;;;4.40;99.90;;;;;;4990450;28;20104;-61
2023/12/09 10:48:56;;;;;;;37.67;19.65;;;4.40;99.90;;;;;;4994162;28;20045;-60
2023/12/09 10:51:23;;;;;;;36.00;19.23;;;4.30;99.90;;;;;;4985823;28;20046;-62
2023/12/09 10:53:50;;;;;;;38.13;19.38;;;4.30;99.90;;;;;;4993884;28;20213;-59
2023/12/09 10:56:18;;;;;;;41.95;20.27;;;4.10;99.90;;;;;;4993088;28;20057;-61
2023/12/09 10:58:46;;;;;;;43.42;18.85;;;4.00;99.90;;;;;;4993872;28;20195;-60
2023/12/09 11:01:15;;;;;;;34.55;16.02;;;3.90;99.90;;;;;;4984907;28;20165;-59
2023/12/09 11:03:42;;;;;;;31.40;16.27;;;3.70;99.90;;;;;;4975279;28;20053;-60
2023/12/09 11:06:11;;;;;;;30.40;15.48;;;3.60;99.90;;;;;;4992275;28;20039;-58
2023/12/09 11:08:39;;;;;;;32.08;16.55;;;3.50;99.90;;;;;;4992216;28;20044;-60
2023/12/09 11:11:07;;;;;;;35.17;17.92;;;3.50;99.90;;;;;;4990208;28;20521;-57
2023/12/09 11:13:36;;;;;;;35.58;17.08;;;3.60;99.90;;;;;;4990520;28;20043;-60
2023/12/09 11:16:12;;;;;;;37.53;17.20;;;3.70;99.90;;;;;;4989078;28;20065;-59
2023/12/09 11:18:58;;;;;;;38.38;18.38;;;3.60;99.90;;;;;;4991237;28;20438;-60
2023/12/09 11:21:29;;;;;;;35.47;17.08;;;3.70;99.90;;;;;;4991997;28;20052;-58
2023/12/09 11:23:57;;;;;;;35.20;17.30;;;3.70;99.90;;;;;;4990543;28;20043;-60
2023/12/09 11:26:29;;;;;;;37.65;17.40;;;3.60;99.90;;;;;;4977746;28;20035;-57
2023/12/09 11:29:02;;;;;;;43.53;20.73;;;3.60;99.90;;;;;;4992796;28;20121;-58
2023/12/09 11:31:38;;;;;;;36.35;17.80;;;3.70;99.90;;;;;;4979996;28;20122;-59
2023/12/09 11:34:16;;;;;;;38.88;19.02;;;3.50;99.90;;;;;;4992729;28;20061;-59
2023/12/09 11:36:44;;;;;;;38.58;18.95;;;3.60;99.90;;;;;;4984654;28;20051;-59
2023/12/09 11:39:19;;;;;;;41.00;18.38;;;3.60;99.90;;;;;;4980705;28;20051;-59
2023/12/09 11:41:48;;;;;;;42.78;19.00;;;3.50;99.90;;;;;;4992865;28;20039;-59
2023/12/09 11:44:15;;;;;;;41.55;19.73;;;3.60;99.90;;;;;;4992751;28;20050;-59
2023/12/09 11:46:43;;;;;;;43.88;20.33;;;3.70;99.90;;;;;;4986938;28;20042;-57
2023/12/09 11:49:09;;;;;;;38.20;19.58;;;3.70;99.90;;;;;;4990179;28;20121;-60
2023/12/09 11:51:38;;;;;;;;;;;3.80;99.90;;;;;;4992064;28;20646;-59
2023/12/09 11:54:07;;;;;;;41.97;20.88;;;3.90;99.90;;;;;;4986203;28;19930;-57
2023/12/09 11:56:35;;;;;;;41.78;19.80;;;3.90;99.90;;;;;;4982273;28;20050;-59
2023/12/09 11:59:02;;;;;;;39.90;18.50;;;4.00;99.90;;;;;;4986284;28;20117;-59
2023/12/09 12:01:30;;;;;;;39.15;18.50;;;3.90;99.90;;;;;;4991182;28;20050;-59
2023/12/09 12:03:57;;;;;;;57.13;23.80;;;3.90;99.90;;;;;;4990367;28;20125;-59
2023/12/09 12:06:24;;;;;;;;;;;3.70;99.90;;;;;;4991901;28;20042;-59
2023/12/09 12:08:52;;;;;;;38.53;19.13;;;3.50;99.90;;;;;;4990955;28;19952;-58
2023/12/09 12:11:24;;;;;;;36.05;17.77;;;3.40;99.90;;;;;;4987863;28;20042;-58
2023/12/09 12:13:52;;;;;;;34.17;17.80;;;3.30;99.90;;;;;;4992541;28;20073;-57
2023/12/09 12:16:20;;;;;;;35.67;17.27;;;3.30;99.90;;;;;;4985036;28;20046;-59
2023/12/09 12:18:47;;;;;;;32.65;16.45;;;3.20;99.90;;;;;;4986931;28;20038;-58
2023/12/09 12:21:15;;;;;;;31.50;16.85;;;3.40;99.90;;;;;;4972323;28;20053;-59
2023/12/09 12:23:42;;;;;;;38.80;19.30;;;3.40;99.90;;;;;;4992403;28;20466;-58
2023/12/09 12:26:11;;;;;;;37.47;17.77;;;3.40;99.90;;;;;;4990729;28;20073;-60
2023/12/09 12:28:38;;;;;;;38.05;19.40;;;3.40;99.90;;;;;;4987265;28;20091;-60
2023/12/09 12:31:06;;;;;;;32.97;16.08;;;3.40;99.90;;;;;;4980354;28;20042;-58
2023/12/09 12:33:34;;;;;;;36.50;16.88;;;3.30;99.90;;;;;;4991538;28;20042;-55
2023/12/09 12:36:01;;;;;;;34.72;17.23;;;3.20;99.90;;;;;;4991005;28;20101;-58
2023/12/09 12:38:29;;;;;;;41.60;18.25;;;3.20;99.90;;;;;;4991792;28;20419;-58
2023/12/09 12:40:59;;;;;;;33.85;16.85;;;3.20;99.90;;;;;;4987669;28;20434;-58
2023/12/09 12:43:30;;;;;;;34.75;17.15;;;3.20;99.90;;;;;;4989521;28;20469;-58
2023/12/09 12:45:58;;;;;;;39.40;20.00;;;3.30;99.90;;;;;;4991372;28;20045;-59